createdAt,value
2019-05-11T00:00:07.764Z,5.40
2019-05-11T00:05:10.126Z,5.20
2019-05-11T00:07:42.494Z,5.37
2019-05-11T00:10:14.079Z,4.55
2019-05-11T00:12:45.650Z,4.50
2019-05-11T00:15:19.749Z,4.37
2019-05-11T00:17:52.364Z,4.42
2019-05-11T00:20:23.859Z,4.05
2019-05-11T00:22:55.149Z,4.92
2019-05-11T00:25:28.149Z,4.15
2019-05-11T00:27:59.675Z,4.80
2019-05-11T00:30:31.148Z,4.37
2019-05-11T00:33:02.701Z,4.87
2019-05-11T00:35:34.132Z,5.37
2019-05-11T00:38:05.574Z,5.65
2019-05-11T00:40:37.090Z,5.50
2019-05-11T00:43:08.770Z,5.37
2019-05-11T00:45:40.222Z,5.75
2019-05-11T00:48:11.635Z,4.95
2019-05-11T00:50:43.073Z,5.33
2019-05-11T00:53:14.574Z,5.37
2019-05-11T00:55:45.950Z,4.97
2019-05-11T00:58:17.483Z,5.60
2019-05-11T01:00:48.946Z,5.37
2019-05-11T01:03:20.500Z,5.50
2019-05-11T01:05:51.991Z,5.80
2019-05-11T01:08:23.655Z,6.25
2019-05-11T01:10:55.505Z,5.58
2019-05-11T01:13:27.070Z,6.00
2019-05-11T01:15:58.483Z,6.20
2019-05-11T01:18:30.030Z,6.08
2019-05-11T01:21:02.523Z,5.92
2019-05-11T01:23:35.083Z,6.37
2019-05-11T01:26:08.363Z,6.30
2019-05-11T01:28:40.993Z,6.75
2019-05-11T01:31:12.829Z,7.22
2019-05-11T01:33:44.471Z,7.28
2019-05-11T01:36:16.287Z,6.95
2019-05-11T01:38:48.039Z,7.47
2019-05-11T01:41:19.505Z,8.50
2019-05-11T01:43:51.315Z,7.70
2019-05-11T01:46:23.037Z,7.97
2019-05-11T01:48:54.484Z,9.18
2019-05-11T01:51:26.176Z,9.15
2019-05-11T01:53:58.047Z,8.73
2019-05-11T01:56:29.486Z,9.50
2019-05-11T01:59:00.796Z,10.48
2019-05-11T02:01:34.453Z,9.15
2019-05-11T02:04:06.136Z,9.88
2019-05-11T02:06:37.766Z,10.65
2019-05-11T02:09:12.017Z,10.35
2019-05-11T02:11:43.828Z,10.30
2019-05-11T02:14:15.752Z,11.00
2019-05-11T02:16:47.245Z,10.45
2019-05-11T02:19:18.856Z,10.32
2019-05-11T02:21:52.702Z,9.83
2019-05-11T02:24:24.468Z,10.48
2019-05-11T02:27:00.095Z,10.25
2019-05-11T02:29:31.613Z,10.03
2019-05-11T02:32:03.062Z,10.23
2019-05-11T02:34:34.779Z,10.20
2019-05-11T02:37:06.421Z,10.23
2019-05-11T02:39:37.946Z,10.28
2019-05-11T02:42:09.475Z,9.58
2019-05-11T02:44:40.892Z,9.63
2019-05-11T02:47:12.454Z,9.78
2019-05-11T02:49:44.209Z,9.80
2019-05-11T02:52:17.091Z,9.80
2019-05-11T02:54:50.489Z,9.73
2019-05-11T02:57:21.944Z,8.98
2019-05-11T02:59:54.637Z,9.03
2019-05-11T03:02:26.002Z,9.30
2019-05-11T03:04:57.675Z,9.40
2019-05-11T03:07:29.050Z,8.48
2019-05-11T03:10:00.951Z,8.93
2019-05-11T03:12:32.643Z,8.48
2019-05-11T03:15:06.328Z,7.78
2019-05-11T03:17:37.612Z,7.72
2019-05-11T03:20:09.167Z,7.80
2019-05-11T03:22:41.024Z,7.75
2019-05-11T03:25:12.521Z,7.65
2019-05-11T03:27:45.453Z,7.58
2019-05-11T03:30:17.184Z,8.70
2019-05-11T03:32:48.862Z,7.90
2019-05-11T03:35:20.430Z,9.28
2019-05-11T03:37:52.140Z,8.75
2019-05-11T03:40:23.753Z,9.83
2019-05-11T03:42:56.031Z,8.75
2019-05-11T03:45:27.981Z,8.83
2019-05-11T03:47:59.533Z,8.45
2019-05-11T03:50:31.343Z,8.33
2019-05-11T03:53:02.735Z,10.25
2019-05-11T03:55:35.088Z,10.60
2019-05-11T03:58:06.751Z,10.30
2019-05-11T04:00:38.416Z,9.50
2019-05-11T04:03:10.094Z,10.10
2019-05-11T04:05:43.746Z,7.75
2019-05-11T04:08:15.236Z,6.97
2019-05-11T04:10:47.550Z,7.15
2019-05-11T04:13:19.123Z,7.08
2019-05-11T04:15:51.014Z,6.97
2019-05-11T04:18:22.639Z,5.90
2019-05-11T04:20:54.196Z,6.35
2019-05-11T04:23:25.783Z,6.22
2019-05-11T04:25:57.425Z,4.97
2019-05-11T04:28:30.736Z,4.60
2019-05-11T04:31:02.230Z,4.42
2019-05-11T04:33:35.485Z,5.05
2019-05-11T04:36:08.727Z,8.80
2019-05-11T04:38:41.816Z,5.00
2019-05-11T04:41:13.382Z,4.67
2019-05-11T04:43:47.128Z,4.12
2019-05-11T04:46:18.560Z,4.17
2019-05-11T04:48:49.961Z,4.42
2019-05-11T04:51:21.550Z,4.20
2019-05-11T04:53:53.018Z,4.45
2019-05-11T04:56:24.453Z,4.60
2019-05-11T04:58:57.829Z,4.47
2019-05-11T05:01:29.259Z,4.22
2019-05-11T05:04:13.226Z,3.80
2019-05-11T05:06:33.942Z,5.58
2019-05-11T05:09:08.327Z,4.22
2019-05-11T05:11:40.243Z,4.35
2019-05-11T05:14:12.147Z,4.50
2019-05-11T05:16:43.630Z,4.65
2019-05-11T05:19:15.106Z,3.98
2019-05-11T05:21:46.860Z,4.62
2019-05-11T05:24:21.913Z,4.60
2019-05-11T05:26:53.468Z,5.55
2019-05-11T05:29:26.443Z,5.08
2019-05-11T05:31:58.270Z,4.70
2019-05-11T05:34:29.920Z,4.60
2019-05-11T05:37:02.191Z,4.87
2019-05-11T05:39:33.706Z,4.90
2019-05-11T05:42:06.430Z,5.22
2019-05-11T05:44:38.125Z,4.40
2019-05-11T05:47:09.705Z,5.62
2019-05-11T05:49:41.484Z,5.70
2019-05-11T05:52:13.199Z,5.33
2019-05-11T05:54:45.991Z,6.17
2019-05-11T05:57:21.031Z,5.75
2019-05-11T05:59:52.567Z,5.65
2019-05-11T06:02:26.489Z,5.60
2019-05-11T06:04:58.893Z,6.33
2019-05-11T06:07:31.631Z,5.92
2019-05-11T06:10:04.428Z,6.12
2019-05-11T06:12:36.042Z,6.42
2019-05-11T06:15:08.558Z,7.30
2019-05-11T06:17:40.416Z,7.30
2019-05-11T06:20:13.899Z,6.77
2019-05-11T06:22:45.431Z,6.92
2019-05-11T06:25:17.066Z,7.40
2019-05-11T06:27:48.613Z,6.92
2019-05-11T06:30:23.159Z,6.12
2019-05-11T06:32:57.708Z,5.75
2019-05-11T06:35:33.378Z,6.33
2019-05-11T06:38:05.164Z,5.50
2019-05-11T06:40:37.578Z,5.80
2019-05-11T06:43:09.961Z,4.97
2019-05-11T06:45:42.541Z,5.70
2019-05-11T06:48:14.540Z,3.60
2019-05-11T06:50:46.424Z,3.77
2019-05-11T06:53:18.463Z,4.42
2019-05-11T06:55:49.981Z,3.92
2019-05-11T06:58:21.600Z,3.62
2019-05-11T07:00:54.238Z,3.27
2019-05-11T07:03:26.769Z,3.55
2019-05-11T07:05:58.145Z,2.67
2019-05-11T07:11:02.596Z,2.70
2019-05-11T07:13:39.818Z,2.98
2019-05-11T07:16:12.219Z,2.77
2019-05-11T07:18:43.789Z,2.95
2019-05-11T07:21:16.344Z,2.60
2019-05-11T07:23:47.774Z,2.40
2019-05-11T07:26:19.254Z,2.40
2019-05-11T07:28:50.569Z,2.25
2019-05-11T07:31:23.634Z,2.37
2019-05-11T07:33:58.739Z,2.67
2019-05-11T07:36:32.570Z,2.42
2019-05-11T07:39:08.486Z,2.02
2019-05-11T07:41:41.401Z,2.00
2019-05-11T07:44:12.970Z,2.00
2019-05-11T07:46:44.590Z,2.42
2019-05-11T07:49:17.933Z,1.82
2019-05-11T07:51:49.317Z,2.05
2019-05-11T07:54:21.987Z,2.35
2019-05-11T07:56:53.507Z,2.67
2019-05-11T07:59:24.996Z,2.35
2019-05-11T08:01:58.332Z,2.27
2019-05-11T08:04:32.102Z,2.27
2019-05-11T08:07:03.674Z,2.37
2019-05-11T08:09:35.004Z,1.92
2019-05-11T08:12:08.751Z,1.95
2019-05-11T08:14:56.817Z,1.73
2019-05-11T08:17:14.718Z,2.20
2019-05-11T08:19:47.619Z,2.12
2019-05-11T08:22:22.665Z,1.72
2019-05-11T08:24:52.637Z,1.50
2019-05-11T08:27:28.549Z,1.60
2019-05-11T08:30:08.368Z,1.55
2019-05-11T08:32:41.924Z,1.72
2019-05-11T08:35:13.825Z,1.65
2019-05-11T08:37:47.720Z,1.65
2019-05-11T08:40:20.891Z,1.72
2019-05-11T08:42:53.936Z,1.95
2019-05-11T08:45:29.775Z,1.80
2019-05-11T08:48:02.916Z,2.75
2019-05-11T08:50:38.400Z,2.77
2019-05-11T08:53:17.705Z,2.05
2019-05-11T08:55:49.199Z,1.92
2019-05-11T08:58:23.662Z,9.20
2019-05-11T09:00:58.205Z,2.05
2019-05-11T09:03:31.985Z,2.30
2019-05-11T09:06:03.897Z,2.10
2019-05-11T09:08:38.835Z,2.40
2019-05-11T09:11:14.098Z,1.82
2019-05-11T09:13:48.846Z,2.67
2019-05-11T09:16:21.315Z,2.17
2019-05-11T09:18:52.626Z,2.45
2019-05-11T09:21:23.989Z,2.10
2019-05-11T09:23:57.859Z,1.92
2019-05-11T09:26:29.591Z,2.15
2019-05-11T09:29:11.354Z,2.12
2019-05-11T09:31:44.117Z,2.40
2019-05-11T09:34:18.085Z,2.60
2019-05-11T09:36:49.699Z,2.35
2019-05-11T09:39:21.120Z,4.45
2019-05-11T09:41:54.770Z,2.33
2019-05-11T09:44:29.578Z,3.20
2019-05-11T09:47:02.818Z,7.53
2019-05-11T09:49:46.399Z,2.55
2019-05-11T09:52:10.719Z,2.90
2019-05-11T09:54:42.245Z,15.58
2019-05-11T09:57:14.184Z,12.20
2019-05-11T09:59:50.167Z,5.72
2019-05-11T10:02:28.674Z,2.98
2019-05-11T10:05:00.653Z,3.27
2019-05-11T10:07:35.156Z,2.87
2019-05-11T10:10:09.164Z,2.80
2019-05-11T10:12:44.690Z,2.98
2019-05-11T10:15:18.600Z,3.45
2019-05-11T10:17:49.728Z,3.22
2019-05-11T10:20:22.442Z,2.52
2019-05-11T10:22:57.962Z,2.80
2019-05-11T10:25:29.736Z,3.02
2019-05-11T10:28:01.395Z,2.72
2019-05-11T10:30:32.812Z,4.55
2019-05-11T10:33:04.615Z,2.75
2019-05-11T10:35:38.577Z,3.20
2019-05-11T10:38:11.022Z,4.03
2019-05-11T10:40:48.047Z,4.87
2019-05-11T10:43:30.443Z,3.90
2019-05-11T10:46:16.088Z,4.85
2019-05-11T10:48:36.016Z,4.92
2019-05-11T10:51:08.250Z,5.12
2019-05-11T10:53:41.105Z,4.95
2019-05-11T10:56:17.879Z,5.35
2019-05-11T10:59:01.627Z,6.50
2019-05-11T11:01:38.030Z,5.70
2019-05-11T11:04:10.709Z,5.95
2019-05-11T11:06:43.681Z,5.70
2019-05-11T11:09:19.120Z,5.58
2019-05-11T11:11:52.531Z,6.50
2019-05-11T11:14:28.794Z,5.70
2019-05-11T11:17:04.963Z,6.15
2019-05-11T11:19:43.004Z,7.47
2019-05-11T11:22:33.268Z,7.85
2019-05-11T11:24:49.871Z,6.30
2019-05-11T11:27:22.911Z,6.53
2019-05-11T11:29:58.116Z,7.35
2019-05-11T11:32:29.088Z,7.50
2019-05-11T11:35:02.901Z,7.20
2019-05-11T11:37:38.476Z,6.87
2019-05-11T11:40:09.945Z,7.40
2019-05-11T11:42:43.603Z,7.47
2019-05-11T11:45:18.299Z,15.28
2019-05-11T11:47:50.747Z,9.60
2019-05-11T11:50:23.049Z,9.15
2019-05-11T11:52:54.712Z,88.07
2019-05-11T11:55:26.248Z,9.95
2019-05-11T11:57:59.111Z,8.63
2019-05-11T12:00:30.584Z,10.48
2019-05-11T12:03:02.071Z,6.37
2019-05-11T12:05:33.396Z,6.45
2019-05-11T12:08:04.749Z,6.67
2019-05-11T12:10:37.975Z,6.17
2019-05-11T12:13:10.520Z,6.55
2019-05-11T12:15:44.187Z,6.42
2019-05-11T12:18:15.967Z,6.85
2019-05-11T12:20:48.136Z,6.22
2019-05-11T12:23:19.775Z,7.22
2019-05-11T12:25:51.977Z,7.12
2019-05-11T12:28:25.107Z,6.62
2019-05-11T12:30:58.556Z,7.45
2019-05-11T12:33:34.877Z,8.10
2019-05-11T12:36:07.915Z,38.73
2019-05-11T12:38:41.657Z,9.55
2019-05-11T12:41:13.701Z,8.90
2019-05-11T12:43:45.099Z,8.93
2019-05-11T12:46:18.849Z,9.33
2019-05-11T12:48:50.301Z,9.28
2019-05-11T12:51:22.409Z,9.60
2019-05-11T12:54:04.308Z,9.45
2019-05-11T12:56:38.249Z,8.65
2019-05-11T12:59:14.460Z,8.28
2019-05-11T13:01:48.530Z,60.48
2019-05-11T13:06:53.088Z,21.27
2019-05-11T13:09:30.072Z,9.63
2019-05-11T13:12:02.389Z,8.35
2019-05-11T13:14:38.176Z,8.88
2019-05-11T13:17:09.912Z,8.78
2019-05-11T13:19:48.040Z,8.95
2019-05-11T13:22:19.571Z,10.03
2019-05-11T13:24:52.210Z,9.43
2019-05-11T13:27:25.292Z,9.28
2019-05-11T13:29:59.201Z,9.28
2019-05-11T13:32:31.049Z,8.95
2019-05-11T13:35:09.179Z,10.60
2019-05-11T13:37:51.799Z,11.05
2019-05-11T13:40:27.720Z,9.50
2019-05-11T13:43:00.093Z,10.53
2019-05-11T13:45:32.789Z,10.15
2019-05-11T13:48:08.455Z,11.08
2019-05-11T13:50:40.465Z,11.53
2019-05-11T13:53:14.535Z,11.12
2019-05-11T13:55:48.263Z,11.38
2019-05-11T13:58:20.785Z,11.28
2019-05-11T14:00:52.227Z,12.28
2019-05-11T14:03:23.768Z,10.98
2019-05-11T14:05:58.166Z,11.75
2019-05-11T14:08:29.899Z,13.53
2019-05-11T14:11:03.235Z,12.23
2019-05-11T14:13:38.691Z,11.08
2019-05-11T14:16:14.895Z,9.88
2019-05-11T14:18:48.890Z,8.93
2019-05-11T14:21:20.791Z,9.20
2019-05-11T14:23:54.696Z,9.90
2019-05-11T14:26:28.017Z,8.95
2019-05-11T14:28:59.797Z,11.10
2019-05-11T14:31:31.997Z,9.48
2019-05-11T14:34:03.716Z,11.57
2019-05-11T14:36:35.163Z,11.15
2019-05-11T14:39:08.394Z,10.72
2019-05-11T14:41:41.924Z,10.50
2019-05-11T14:44:13.447Z,10.70
2019-05-11T14:46:44.960Z,11.33
2019-05-11T14:49:18.437Z,9.60
2019-05-11T14:51:52.279Z,9.00
2019-05-11T14:54:23.792Z,8.13
2019-05-11T14:56:58.416Z,8.85
2019-05-11T14:59:31.389Z,8.78
2019-05-11T15:02:05.146Z,9.28
2019-05-11T15:04:38.841Z,8.68
2019-05-11T15:07:10.610Z,8.55
2019-05-11T15:09:42.163Z,8.85
2019-05-11T15:12:13.699Z,8.43
2019-05-11T15:14:48.592Z,8.05
2019-05-11T15:17:20.083Z,8.45
2019-05-11T15:19:51.549Z,9.40
2019-05-11T15:22:23.043Z,8.83
2019-05-11T15:24:54.702Z,8.35
2019-05-11T15:27:26.059Z,8.20
2019-05-11T15:29:58.787Z,7.95
2019-05-11T15:32:30.391Z,8.03
2019-05-11T15:35:01.847Z,7.47
2019-05-11T15:37:33.307Z,7.70
2019-05-11T15:40:18.613Z,8.40
2019-05-11T15:42:53.133Z,7.75
2019-05-11T15:47:55.190Z,7.58
2019-05-11T15:50:28.864Z,7.25
2019-05-11T15:53:00.043Z,6.87
2019-05-11T15:55:31.657Z,6.70
2019-05-11T15:58:04.452Z,7.40
2019-05-11T16:00:39.705Z,7.70
2019-05-11T16:03:09.339Z,7.42
2019-05-11T16:05:40.852Z,7.53
2019-05-11T16:08:13.381Z,7.15
2019-05-11T16:10:44.997Z,7.95
2019-05-11T16:13:18.115Z,8.75
2019-05-11T16:18:22.852Z,13.48
2019-05-11T16:20:54.369Z,12.53
2019-05-11T16:23:28.232Z,11.30
2019-05-11T16:25:58.974Z,8.08
2019-05-11T16:28:30.997Z,8.33
2019-05-11T16:31:02.584Z,7.95
2019-05-11T16:33:34.049Z,7.45
2019-05-11T16:36:05.446Z,7.33
2019-05-11T16:38:38.010Z,7.45
2019-05-11T16:41:09.802Z,7.58
2019-05-11T16:43:43.112Z,7.70
2019-05-11T16:46:17.760Z,7.58
2019-05-11T16:48:48.953Z,7.17
2019-05-11T16:51:20.346Z,8.50
2019-05-11T16:53:51.828Z,8.13
2019-05-11T16:56:23.485Z,7.95
2019-05-11T16:58:55.302Z,8.68
2019-05-11T17:01:26.893Z,8.90
2019-05-11T17:04:00.807Z,8.20
2019-05-11T17:06:32.577Z,9.18
2019-05-11T17:09:08.598Z,8.40
2019-05-11T17:11:40.550Z,8.35
2019-05-11T17:14:12.552Z,8.75
2019-05-11T17:16:49.040Z,9.43
2019-05-11T17:19:20.733Z,11.00
2019-05-11T17:21:52.499Z,12.53
2019-05-11T17:24:24.398Z,12.73
2019-05-11T17:26:58.323Z,13.25
2019-05-11T17:29:29.925Z,13.28
2019-05-11T17:32:01.695Z,12.75
2019-05-11T17:34:33.269Z,13.28
2019-05-11T17:37:04.898Z,12.93
2019-05-11T17:39:38.559Z,12.50
2019-05-11T17:42:10.353Z,12.93
2019-05-11T17:44:43.690Z,13.75
2019-05-11T17:47:17.409Z,13.15
2019-05-11T17:49:57.361Z,13.37
2019-05-11T17:52:22.109Z,12.88
2019-05-11T17:54:55.157Z,11.88
2019-05-11T17:57:27.833Z,11.48
2019-05-11T18:00:02.150Z,11.22
2019-05-11T18:02:32.717Z,11.77
2019-05-11T18:05:05.316Z,10.75
2019-05-11T18:07:38.515Z,11.28
2019-05-11T18:10:10.374Z,10.05
2019-05-11T18:12:42.323Z,11.03
2019-05-11T18:15:14.051Z,10.43
2019-05-11T18:17:48.192Z,10.13
2019-05-11T18:20:21.968Z,9.88
2019-05-11T18:22:52.438Z,10.48
2019-05-11T18:25:23.947Z,10.30
2019-05-11T18:27:55.402Z,10.90
2019-05-11T18:30:29.120Z,10.58
2019-05-11T18:33:00.065Z,11.10
2019-05-11T18:35:31.979Z,10.03
2019-05-11T18:38:04.484Z,11.22
2019-05-11T18:40:38.191Z,12.10
2019-05-11T18:43:10.215Z,12.10
2019-05-11T18:45:43.340Z,12.82
2019-05-11T18:48:18.350Z,12.95
2019-05-11T18:50:49.311Z,12.07
2019-05-11T18:53:22.117Z,13.38
2019-05-11T18:55:55.492Z,13.20
2019-05-11T18:58:27.851Z,12.63
2019-05-11T19:00:59.931Z,12.37
2019-05-11T19:03:32.179Z,13.00
2019-05-11T19:06:04.125Z,12.90
2019-05-11T19:08:38.287Z,12.93
2019-05-11T19:11:11.135Z,12.53
2019-05-11T19:13:42.777Z,12.88
2019-05-11T19:16:14.533Z,12.63
2019-05-11T19:18:47.949Z,13.40
2019-05-11T19:21:19.190Z,13.43
2019-05-11T19:23:52.004Z,13.48
2019-05-11T19:26:23.742Z,12.65
2019-05-11T19:28:57.826Z,13.03
2019-05-11T19:31:28.838Z,13.18
2019-05-11T19:34:00.506Z,14.38
2019-05-11T19:36:32.101Z,13.75
2019-05-11T19:39:05.276Z,14.33
2019-05-11T19:41:36.982Z,14.63
2019-05-11T19:44:08.815Z,16.35
2019-05-11T19:46:42.314Z,15.53
2019-05-11T19:49:16.107Z,15.68
2019-05-11T19:51:48.799Z,15.58
2019-05-11T19:54:20.392Z,15.95
2019-05-11T19:56:52.536Z,16.32
2019-05-11T19:59:25.025Z,16.35
2019-05-11T20:01:59.801Z,15.55
2019-05-11T20:04:30.728Z,17.07
2019-05-11T20:07:02.724Z,16.42
2019-05-11T20:09:34.506Z,17.25
2019-05-11T20:12:06.341Z,17.57
2019-05-11T20:14:38.125Z,17.57
2019-05-11T20:17:09.687Z,17.77
2019-05-11T20:19:41.566Z,16.90
2019-05-11T20:22:16.682Z,20.52
2019-05-11T20:24:49.868Z,21.77
2019-05-11T20:27:21.403Z,24.50
2019-05-11T20:29:55.006Z,26.42
2019-05-11T20:32:28.418Z,24.32
2019-05-11T20:34:59.973Z,28.20
2019-05-11T20:37:32.342Z,26.62
2019-05-11T20:40:05.961Z,27.95
2019-05-11T20:42:38.244Z,26.87
2019-05-11T20:45:12.036Z,27.40
2019-05-11T20:47:48.449Z,28.27
2019-05-11T20:50:21.900Z,27.32
2019-05-11T20:52:54.757Z,26.25
2019-05-11T20:55:28.401Z,22.75
2019-05-11T20:57:59.758Z,20.20
2019-05-11T21:00:31.278Z,18.07
2019-05-11T21:03:03.008Z,17.23
2019-05-11T21:05:34.802Z,17.25
2019-05-11T21:08:08.657Z,16.52
2019-05-11T21:10:42.057Z,16.32
2019-05-11T21:13:14.872Z,15.85
2019-05-11T21:15:47.852Z,16.87
2019-05-11T21:18:20.538Z,17.80
2019-05-11T21:20:52.514Z,17.37
2019-05-11T21:23:24.746Z,17.10
2019-05-11T21:25:56.569Z,15.32
2019-05-11T21:28:30.675Z,16.77
2019-05-11T21:31:07.781Z,16.60
2019-05-11T21:33:38.952Z,16.57
2019-05-11T21:36:11.687Z,16.55
2019-05-11T21:38:44.473Z,16.23
2019-05-11T21:41:17.435Z,17.05
2019-05-11T21:43:50.140Z,17.55
2019-05-11T21:46:22.579Z,18.10
2019-05-11T21:48:58.347Z,17.52
2019-05-11T21:51:30.607Z,18.05
2019-05-11T21:54:05.023Z,18.37
2019-05-11T21:56:40.793Z,17.50
2019-05-11T21:59:11.016Z,18.03
2019-05-11T22:01:43.149Z,18.12
2019-05-11T22:04:15.275Z,17.82
2019-05-11T22:06:48.371Z,18.10
2019-05-11T22:09:20.760Z,19.12
2019-05-11T22:11:55.823Z,18.02
2019-05-11T22:14:29.892Z,17.82
2019-05-11T22:19:34.233Z,21.20
2019-05-11T22:22:20.739Z,21.27
2019-05-11T22:27:10.530Z,22.32
2019-05-11T22:29:42.174Z,22.20
2019-05-11T22:32:13.997Z,22.93
2019-05-11T22:34:47.856Z,22.07
2019-05-11T22:37:19.899Z,24.43
2019-05-11T22:39:51.564Z,25.90
2019-05-11T22:42:23.054Z,24.40
2019-05-11T22:44:54.502Z,32.33
2019-05-11T22:47:28.204Z,30.80
2019-05-11T22:50:07.804Z,36.67
2019-05-11T22:52:40.274Z,32.15
2019-05-11T22:55:12.426Z,25.45
2019-05-11T22:57:44.113Z,27.95
2019-05-11T23:00:18.329Z,27.25
2019-05-11T23:02:49.186Z,27.45
2019-05-11T23:05:20.830Z,29.70
2019-05-11T23:07:52.560Z,32.25
2019-05-11T23:10:24.180Z,34.03
2019-05-11T23:12:55.770Z,32.45
2019-05-11T23:15:27.376Z,30.70
2019-05-11T23:17:59.967Z,31.35
2019-05-11T23:20:31.689Z,30.10
2019-05-11T23:23:03.345Z,30.52
2019-05-11T23:25:34.954Z,31.48
2019-05-11T23:28:06.559Z,30.52
2019-05-11T23:30:38.957Z,30.52
2019-05-11T23:33:11.090Z,30.60
2019-05-11T23:35:42.671Z,30.02
2019-05-11T23:38:14.418Z,32.23
2019-05-11T23:40:48.098Z,30.45
2019-05-11T23:43:19.408Z,32.75
2019-05-11T23:45:51.149Z,32.98
2019-05-11T23:48:22.756Z,33.50
2019-05-11T23:50:58.009Z,33.65
2019-05-11T23:53:29.175Z,30.52
2019-05-11T23:56:00.828Z,30.75
2019-05-11T23:58:32.281Z,33.25
